sensor_id;sensor_type;location;lat;lon;timestamp;pressure;altitude;pressure_sealevel;temperature
74485;BMP280;62942;52.462;10.846;2022-10-16T00:00:40;100350;;;
74485;BMP280;62942;52.462;10.846;2022-10-16T00:01:39;100350;;;
74485;BMP280;62942;52.462;10.846;2022-10-16T00:02:49;100350;;;
74485;BMP280;62942;52.462;10.846;2022-10-16T00:03:59;100360;;;
74485;BMP280;62942;52.462;10.846;2022-10-16T00:04:59;100360;;;
74485;BMP280;62942;52.462;10.846;2022-10-16T00:06:09;100360;;;
74485;BMP280;62942;52.462;10.846;2022-10-16T00:07:19;100340;;;
74485;BMP280;62942;52.462;10.846;2022-10-16T00:08:19;100350;;;
74485;BMP280;62942;52.462;10.846;2022-10-16T00:09:29;100350;;;
74485;BMP280;62942;52.462;10.846;2022-10-16T00:10:39;100350;;;
74485;BMP280;62942;52.462;10.846;2022-10-16T00:11:39;100350;;;
74485;BMP280;62942;52.462;10.846;2022-10-16T00:12:39;100350;;;
74485;BMP280;62942;52.462;10.846;2022-10-16T00:13:50;100350;;;
74485;BMP280;62942;52.462;10.846;2022-10-16T00:14:59;100350;;;
74485;BMP280;62942;52.462;10.846;2022-10-16T00:16:00;100350;;;
74485;BMP280;62942;52.462;10.846;2022-10-16T00:17:09;100360;;;
74485;BMP280;62942;52.462;10.846;2022-10-16T00:18:19;100350;;;
74485;BMP280;62942;52.462;10.846;2022-10-16T00:19:29;100350;;;
74485;BMP280;62942;52.462;10.846;2022-10-16T00:20:29;100350;;;
74485;BMP280;62942;52.462;10.846;2022-10-16T00:21:29;100350;;;
74485;BMP280;62942;52.462;10.846;2022-10-16T00:22:39;100360;;;
74485;BMP280;62942;52.462;10.846;2022-10-16T00:23:39;100350;;;
74485;BMP280;62942;52.462;10.846;2022-10-16T00:24:49;100350;;;
74485;BMP280;62942;52.462;10.846;2022-10-16T00:25:59;100350;;;
74485;BMP280;62942;52.462;10.846;2022-10-16T00:27:09;100350;;;
74485;BMP280;62942;52.462;10.846;2022-10-16T00:28:09;100350;;;
74485;BMP280;62942;52.462;10.846;2022-10-16T00:29:19;100350;;;
74485;BMP280;62942;52.462;10.846;2022-10-16T00:30:19;100350;;;
74485;BMP280;62942;52.462;10.846;2022-10-16T00:31:29;100350;;;
74485;BMP280;62942;52.462;10.846;2022-10-16T00:32:39;100350;;;
74485;BMP280;62942;52.462;10.846;2022-10-16T00:33:49;100360;;;
74485;BMP280;62942;52.462;10.846;2022-10-16T00:34:59;100360;;;
74485;BMP280;62942;52.462;10.846;2022-10-16T00:35:59;100360;;;
74485;BMP280;62942;52.462;10.846;2022-10-16T00:37:09;100360;;;
74485;BMP280;62942;52.462;10.846;2022-10-16T00:38:19;100360;;;
74485;BMP280;62942;52.462;10.846;2022-10-16T00:39:29;100360;;;
74485;BMP280;62942;52.462;10.846;2022-10-16T00:40:39;100360;;;
74485;BMP280;62942;52.462;10.846;2022-10-16T00:41:49;100360;;;
74485;BMP280;62942;52.462;10.846;2022-10-16T00:42:59;100360;;;
74485;BMP280;62942;52.462;10.846;2022-10-16T00:44:43;100360;;;
74485;BMP280;62942;52.462;10.846;2022-10-16T00:45:19;100360;;;
74485;BMP280;62942;52.462;10.846;2022-10-16T00:46:29;100370;;;
74485;BMP280;62942;52.462;10.846;2022-10-16T00:47:30;100370;;;
74485;BMP280;62942;52.462;10.846;2022-10-16T00:48:39;100370;;;
74485;BMP280;62942;52.462;10.846;2022-10-16T00:49:50;100370;;;
74485;BMP280;62942;52.462;10.846;2022-10-16T00:50:49;100370;;;
74485;BMP280;62942;52.462;10.846;2022-10-16T00:51:59;100370;;;
74485;BMP280;62942;52.462;10.846;2022-10-16T00:52:59;100370;;;
74485;BMP280;62942;52.462;10.846;2022-10-16T00:53:59;100370;;;
74485;BMP280;62942;52.462;10.846;2022-10-16T00:55:09;100370;;;
74485;BMP280;62942;52.462;10.846;2022-10-16T00:56:19;100360;;;
74485;BMP280;62942;52.462;10.846;2022-10-16T00:57:19;100360;;;
74485;BMP280;62942;52.462;10.846;2022-10-16T00:58:29;100360;;;
74485;BMP280;62942;52.462;10.846;2022-10-16T00:59:30;100370;;;
74485;BMP280;62942;52.462;10.846;2022-10-16T01:00:39;100370;;;
74485;BMP280;62942;52.462;10.846;2022-10-16T01:01:39;100380;;;
74485;BMP280;62942;52.462;10.846;2022-10-16T01:02:39;100380;;;
74485;BMP280;62942;52.462;10.846;2022-10-16T01:03:49;100380;;;
74485;BMP280;62942;52.462;10.846;2022-10-16T01:04:50;100380;;;
74485;BMP280;62942;52.462;10.846;2022-10-16T01:06:04;100380;;;
74485;BMP280;62942;52.462;10.846;2022-10-16T01:07:01;100390;;;
74485;BMP280;62942;52.462;10.846;2022-10-16T01:08:11;100390;;;
74485;BMP280;62942;52.462;10.846;2022-10-16T01:09:11;100400;;;
74485;BMP280;62942;52.462;10.846;2022-10-16T01:10:21;100400;;;
74485;BMP280;62942;52.462;10.846;2022-10-16T01:11:30;100400;;;
74485;BMP280;62942;52.462;10.846;2022-10-16T01:12:40;100390;;;
74485;BMP280;62942;52.462;10.846;2022-10-16T01:13:40;100390;;;
74485;BMP280;62942;52.462;10.846;2022-10-16T01:14:52;100390;;;
74485;BMP280;62942;52.462;10.846;2022-10-16T01:16:00;100390;;;
74485;BMP280;62942;52.462;10.846;2022-10-16T01:17:10;100390;;;
74485;BMP280;62942;52.462;10.846;2022-10-16T01:18:21;100390;;;
74485;BMP280;62942;52.462;10.846;2022-10-16T01:19:20;100390;;;
74485;BMP280;62942;52.462;10.846;2022-10-16T01:20:30;100400;;;
74485;BMP280;62942;52.462;10.846;2022-10-16T01:21:40;100400;;;
74485;BMP280;62942;52.462;10.846;2022-10-16T01:22:54;100400;;;
74485;BMP280;62942;52.462;10.846;2022-10-16T01:24:01;100400;;;
74485;BMP280;62942;52.462;10.846;2022-10-16T01:25:09;100400;;;
74485;BMP280;62942;52.462;10.846;2022-10-16T01:26:23;100400;;;
74485;BMP280;62942;52.462;10.846;2022-10-16T01:27:30;100400;;;
74485;BMP280;62942;52.462;10.846;2022-10-16T01:28:39;100400;;;
74485;BMP280;62942;52.462;10.846;2022-10-16T01:29:50;100400;;;
74485;BMP280;62942;52.462;10.846;2022-10-16T01:30:49;100400;;;
74485;BMP280;62942;52.462;10.846;2022-10-16T01:32:00;100400;;;
74485;BMP280;62942;52.462;10.846;2022-10-16T01:33:10;100400;;;
74485;BMP280;62942;52.462;10.846;2022-10-16T01:34:20;100390;;;
74485;BMP280;62942;52.462;10.846;2022-10-16T01:35:20;100390;;;
74485;BMP280;62942;52.462;10.846;2022-10-16T01:36:30;100390;;;
74485;BMP280;62942;52.462;10.846;2022-10-16T01:37:40;100390;;;
74485;BMP280;62942;52.462;10.846;2022-10-16T01:38:49;100390;;;
74485;BMP280;62942;52.462;10.846;2022-10-16T01:39:59;100390;;;
74485;BMP280;62942;52.462;10.846;2022-10-16T01:40:59;100390;;;
74485;BMP280;62942;52.462;10.846;2022-10-16T01:42:09;100380;;;
74485;BMP280;62942;52.462;10.846;2022-10-16T01:43:10;100380;;;
74485;BMP280;62942;52.462;10.846;2022-10-16T01:44:19;100370;;;
74485;BMP280;62942;52.462;10.846;2022-10-16T01:45:19;100370;;;
74485;BMP280;62942;52.462;10.846;2022-10-16T01:46:29;100370;;;
74485;BMP280;62942;52.462;10.846;2022-10-16T01:47:39;100370;;;
74485;BMP280;62942;52.462;10.846;2022-10-16T01:48:49;100390;;;
74485;BMP280;62942;52.462;10.846;2022-10-16T01:49:49;100390;;;
74485;BMP280;62942;52.462;10.846;2022-10-16T01:51:00;100390;;;
74485;BMP280;62942;52.462;10.846;2022-10-16T01:51:59;100390;;;
74485;BMP280;62942;52.462;10.846;2022-10-16T01:53:10;100380;;;
74485;BMP280;62942;52.462;10.846;2022-10-16T01:54:09;100390;;;
74485;BMP280;62942;52.462;10.846;2022-10-16T01:55:20;100390;;;
74485;BMP280;62942;52.462;10.846;2022-10-16T01:56:29;100390;;;
74485;BMP280;62942;52.462;10.846;2022-10-16T01:57:39;100400;;;
74485;BMP280;62942;52.462;10.846;2022-10-16T01:58:49;100390;;;
74485;BMP280;62942;52.462;10.846;2022-10-16T02:00:00;100390;;;
74485;BMP280;62942;52.462;10.846;2022-10-16T02:01:09;100400;;;
74485;BMP280;62942;52.462;10.846;2022-10-16T02:02:19;100390;;;
74485;BMP280;62942;52.462;10.846;2022-10-16T02:03:19;100400;;;
74485;BMP280;62942;52.462;10.846;2022-10-16T02:04:20;100400;;;
74485;BMP280;62942;52.462;10.846;2022-10-16T02:05:30;100410;;;
74485;BMP280;62942;52.462;10.846;2022-10-16T02:06:39;100410;;;
74485;BMP280;62942;52.462;10.846;2022-10-16T02:07:49;100400;;;
74485;BMP280;62942;52.462;10.846;2022-10-16T02:08:49;100400;;;
74485;BMP280;62942;52.462;10.846;2022-10-16T02:09:49;100400;;;
74485;BMP280;62942;52.462;10.846;2022-10-16T02:10:59;100400;;;
74485;BMP280;62942;52.462;10.846;2022-10-16T02:12:10;100410;;;
74485;BMP280;62942;52.462;10.846;2022-10-16T02:13:21;100400;;;
74485;BMP280;62942;52.462;10.846;2022-10-16T02:14:29;100400;;;
74485;BMP280;62942;52.462;10.846;2022-10-16T02:15:39;100400;;;
74485;BMP280;62942;52.462;10.846;2022-10-16T02:16:49;100400;;;
74485;BMP280;62942;52.462;10.846;2022-10-16T02:17:59;100410;;;
74485;BMP280;62942;52.462;10.846;2022-10-16T02:19:09;100420;;;
74485;BMP280;62942;52.462;10.846;2022-10-16T02:20:19;100420;;;
74485;BMP280;62942;52.462;10.846;2022-10-16T02:21:21;100420;;;
74485;BMP280;62942;52.462;10.846;2022-10-16T02:22:29;100410;;;
74485;BMP280;62942;52.462;10.846;2022-10-16T02:23:30;100420;;;
74485;BMP280;62942;52.462;10.846;2022-10-16T02:24:41;100400;;;
74485;BMP280;62942;52.462;10.846;2022-10-16T02:25:49;100420;;;
74485;BMP280;62942;52.462;10.846;2022-10-16T02:27:01;100420;;;
74485;BMP280;62942;52.462;10.846;2022-10-16T02:28:09;100420;;;
74485;BMP280;62942;52.462;10.846;2022-10-16T02:29:10;100420;;;
74485;BMP280;62942;52.462;10.846;2022-10-16T02:30:19;100430;;;
74485;BMP280;62942;52.462;10.846;2022-10-16T02:31:20;100420;;;
74485;BMP280;62942;52.462;10.846;2022-10-16T02:32:30;100430;;;
74485;BMP280;62942;52.462;10.846;2022-10-16T02:33:39;100420;;;
74485;BMP280;62942;52.462;10.846;2022-10-16T02:34:49;100420;;;
74485;BMP280;62942;52.462;10.846;2022-10-16T02:35:49;100430;;;
74485;BMP280;62942;52.462;10.846;2022-10-16T02:36:59;100420;;;
74485;BMP280;62942;52.462;10.846;2022-10-16T02:38:09;100430;;;
74485;BMP280;62942;52.462;10.846;2022-10-16T02:39:19;100420;;;
74485;BMP280;62942;52.462;10.846;2022-10-16T02:40:29;100430;;;
74485;BMP280;62942;52.462;10.846;2022-10-16T02:41:39;100430;;;
74485;BMP280;62942;52.462;10.846;2022-10-16T02:42:49;100440;;;
74485;BMP280;62942;52.462;10.846;2022-10-16T02:43:49;100440;;;
74485;BMP280;62942;52.462;10.846;2022-10-16T02:44:59;100450;;;
74485;BMP280;62942;52.462;10.846;2022-10-16T02:45:59;100450;;;
74485;BMP280;62942;52.462;10.846;2022-10-16T02:47:09;100450;;;
74485;BMP280;62942;52.462;10.846;2022-10-16T02:48:19;100450;;;
74485;BMP280;62942;52.462;10.846;2022-10-16T02:49:19;100450;;;
74485;BMP280;62942;52.462;10.846;2022-10-16T02:50:29;100450;;;
74485;BMP280;62942;52.462;10.846;2022-10-16T02:51:29;100460;;;
74485;BMP280;62942;52.462;10.846;2022-10-16T02:52:29;100450;;;
74485;BMP280;62942;52.462;10.846;2022-10-16T02:53:39;100450;;;
74485;BMP280;62942;52.462;10.846;2022-10-16T02:54:39;100460;;;
74485;BMP280;62942;52.462;10.846;2022-10-16T02:55:49;100460;;;
74485;BMP280;62942;52.462;10.846;2022-10-16T02:56:59;100450;;;
74485;BMP280;62942;52.462;10.846;2022-10-16T02:58:09;100440;;;
74485;BMP280;62942;52.462;10.846;2022-10-16T02:59:19;100440;;;
74485;BMP280;62942;52.462;10.846;2022-10-16T03:00:29;100450;;;
74485;BMP280;62942;52.462;10.846;2022-10-16T03:01:39;100450;;;
74485;BMP280;62942;52.462;10.846;2022-10-16T03:02:49;100460;;;
74485;BMP280;62942;52.462;10.846;2022-10-16T03:03:49;100460;;;
74485;BMP280;62942;52.462;10.846;2022-10-16T03:04:59;100460;;;
74485;BMP280;62942;52.462;10.846;2022-10-16T03:06:09;100460;;;
74485;BMP280;62942;52.462;10.846;2022-10-16T03:07:19;100450;;;
74485;BMP280;62942;52.462;10.846;2022-10-16T03:08:29;100450;;;
74485;BMP280;62942;52.462;10.846;2022-10-16T03:09:39;100450;;;
74485;BMP280;62942;52.462;10.846;2022-10-16T03:10:49;100450;;;
74485;BMP280;62942;52.462;10.846;2022-10-16T03:11:59;100450;;;
74485;BMP280;62942;52.462;10.846;2022-10-16T03:13:09;100440;;;
74485;BMP280;62942;52.462;10.846;2022-10-16T03:14:19;100450;;;
74485;BMP280;62942;52.462;10.846;2022-10-16T03:15:29;100450;;;
74485;BMP280;62942;52.462;10.846;2022-10-16T03:16:39;100440;;;
74485;BMP280;62942;52.462;10.846;2022-10-16T03:17:49;100450;;;
74485;BMP280;62942;52.462;10.846;2022-10-16T03:18:59;100450;;;
74485;BMP280;62942;52.462;10.846;2022-10-16T03:20:09;100450;;;
74485;BMP280;62942;52.462;10.846;2022-10-16T03:21:19;100450;;;
74485;BMP280;62942;52.462;10.846;2022-10-16T03:22:19;100450;;;
74485;BMP280;62942;52.462;10.846;2022-10-16T03:23:29;100450;;;
74485;BMP280;62942;52.462;10.846;2022-10-16T03:24:39;100450;;;
74485;BMP280;62942;52.462;10.846;2022-10-16T03:25:49;100450;;;
74485;BMP280;62942;52.462;10.846;2022-10-16T03:26:49;100450;;;
74485;BMP280;62942;52.462;10.846;2022-10-16T03:27:59;100450;;;
74485;BMP280;62942;52.462;10.846;2022-10-16T03:29:09;100450;;;
74485;BMP280;62942;52.462;10.846;2022-10-16T03:30:19;100450;;;
74485;BMP280;62942;52.462;10.846;2022-10-16T03:31:29;100450;;;
74485;BMP280;62942;52.462;10.846;2022-10-16T03:32:39;100450;;;
74485;BMP280;62942;52.462;10.846;2022-10-16T03:33:39;100440;;;
74485;BMP280;62942;52.462;10.846;2022-10-16T03:34:49;100450;;;
74485;BMP280;62942;52.462;10.846;2022-10-16T03:35:59;100450;;;
74485;BMP280;62942;52.462;10.846;2022-10-16T03:36:59;100450;;;
74485;BMP280;62942;52.462;10.846;2022-10-16T03:38:09;100460;;;
74485;BMP280;62942;52.462;10.846;2022-10-16T03:39:09;100450;;;
74485;BMP280;62942;52.462;10.846;2022-10-16T03:40:19;100450;;;
74485;BMP280;62942;52.462;10.846;2022-10-16T03:41:19;100450;;;
74485;BMP280;62942;52.462;10.846;2022-10-16T03:42:29;100450;;;
74485;BMP280;62942;52.462;10.846;2022-10-16T03:43:39;100450;;;
74485;BMP280;62942;52.462;10.846;2022-10-16T03:44:39;100450;;;
74485;BMP280;62942;52.462;10.846;2022-10-16T03:45:39;100460;;;
74485;BMP280;62942;52.462;10.846;2022-10-16T03:46:39;100460;;;
74485;BMP280;62942;52.462;10.846;2022-10-16T03:47:49;100450;;;
74485;BMP280;62942;52.462;10.846;2022-10-16T03:48:49;100460;;;
74485;BMP280;62942;52.462;10.846;2022-10-16T03:49:59;100450;;;
74485;BMP280;62942;52.462;10.846;2022-10-16T03:51:09;100450;;;
74485;BMP280;62942;52.462;10.846;2022-10-16T03:52:09;100460;;;
74485;BMP280;62942;52.462;10.846;2022-10-16T03:53:19;100460;;;
74485;BMP280;62942;52.462;10.846;2022-10-16T03:54:29;100460;;;
74485;BMP280;62942;52.462;10.846;2022-10-16T03:55:40;100460;;;
74485;BMP280;62942;52.462;10.846;2022-10-16T03:56:49;100450;;;
74485;BMP280;62942;52.462;10.846;2022-10-16T03:57:49;100450;;;
74485;BMP280;62942;52.462;10.846;2022-10-16T03:58:59;100450;;;
74485;BMP280;62942;52.462;10.846;2022-10-16T03:59:59;100450;;;
74485;BMP280;62942;52.462;10.846;2022-10-16T04:01:09;100450;;;
74485;BMP280;62942;52.462;10.846;2022-10-16T04:02:09;100450;;;
74485;BMP280;62942;52.462;10.846;2022-10-16T04:03:19;100460;;;
74485;BMP280;62942;52.462;10.846;2022-10-16T04:04:29;100460;;;
74485;BMP280;62942;52.462;10.846;2022-10-16T04:05:39;100460;;;
74485;BMP280;62942;52.462;10.846;2022-10-16T04:06:39;100460;;;
74485;BMP280;62942;52.462;10.846;2022-10-16T04:07:39;100460;;;
74485;BMP280;62942;52.462;10.846;2022-10-16T04:08:49;100460;;;
74485;BMP280;62942;52.462;10.846;2022-10-16T04:09:59;100470;;;
74485;BMP280;62942;52.462;10.846;2022-10-16T04:10:59;100470;;;
74485;BMP280;62942;52.462;10.846;2022-10-16T04:12:09;100480;;;
74485;BMP280;62942;52.462;10.846;2022-10-16T04:13:19;100470;;;
74485;BMP280;62942;52.462;10.846;2022-10-16T04:14:29;100470;;;
74485;BMP280;62942;52.462;10.846;2022-10-16T04:15:39;100470;;;
74485;BMP280;62942;52.462;10.846;2022-10-16T04:16:48;100460;;;
74485;BMP280;62942;52.462;10.846;2022-10-16T04:17:49;100460;;;
74485;BMP280;62942;52.462;10.846;2022-10-16T04:18:59;100460;;;
74485;BMP280;62942;52.462;10.846;2022-10-16T04:20:09;100460;;;
74485;BMP280;62942;52.462;10.846;2022-10-16T04:21:19;100460;;;
74485;BMP280;62942;52.462;10.846;2022-10-16T04:22:28;100460;;;
74485;BMP280;62942;52.462;10.846;2022-10-16T04:23:39;100470;;;
74485;BMP280;62942;52.462;10.846;2022-10-16T04:24:48;100470;;;
74485;BMP280;62942;52.462;10.846;2022-10-16T04:25:49;100460;;;
74485;BMP280;62942;52.462;10.846;2022-10-16T04:26:49;100460;;;
74485;BMP280;62942;52.462;10.846;2022-10-16T04:27:58;100460;;;
74485;BMP280;62942;52.462;10.846;2022-10-16T04:29:08;100470;;;
74485;BMP280;62942;52.462;10.846;2022-10-16T04:30:19;100460;;;
74485;BMP280;62942;52.462;10.846;2022-10-16T04:31:28;100460;;;
74485;BMP280;62942;52.462;10.846;2022-10-16T04:32:28;100460;;;
74485;BMP280;62942;52.462;10.846;2022-10-16T04:33:38;100460;;;
74485;BMP280;62942;52.462;10.846;2022-10-16T04:34:39;100460;;;
74485;BMP280;62942;52.462;10.846;2022-10-16T04:35:55;100460;;;
74485;BMP280;62942;52.462;10.846;2022-10-16T04:36:58;100460;;;
74485;BMP280;62942;52.462;10.846;2022-10-16T04:38:08;100460;;;
74485;BMP280;62942;52.462;10.846;2022-10-16T04:39:08;100460;;;
74485;BMP280;62942;52.462;10.846;2022-10-16T04:40:18;100470;;;
74485;BMP280;62942;52.462;10.846;2022-10-16T04:41:18;100460;;;
74485;BMP280;62942;52.462;10.846;2022-10-16T04:42:28;100460;;;
74485;BMP280;62942;52.462;10.846;2022-10-16T04:43:29;100470;;;
74485;BMP280;62942;52.462;10.846;2022-10-16T04:44:38;100470;;;
74485;BMP280;62942;52.462;10.846;2022-10-16T04:45:48;100460;;;
74485;BMP280;62942;52.462;10.846;2022-10-16T04:46:59;100460;;;
74485;BMP280;62942;52.462;10.846;2022-10-16T04:48:09;100460;;;
74485;BMP280;62942;52.462;10.846;2022-10-16T04:49:08;100470;;;
74485;BMP280;62942;52.462;10.846;2022-10-16T04:50:18;100470;;;
74485;BMP280;62942;52.462;10.846;2022-10-16T04:51:19;100470;;;
74485;BMP280;62942;52.462;10.846;2022-10-16T04:52:28;100470;;;
74485;BMP280;62942;52.462;10.846;2022-10-16T04:53:28;100470;;;
74485;BMP280;62942;52.462;10.846;2022-10-16T04:54:38;100470;;;
74485;BMP280;62942;52.462;10.846;2022-10-16T04:55:39;100470;;;
74485;BMP280;62942;52.462;10.846;2022-10-16T04:56:48;100480;;;
74485;BMP280;62942;52.462;10.846;2022-10-16T04:57:58;100480;;;
74485;BMP280;62942;52.462;10.846;2022-10-16T04:59:08;100490;;;
74485;BMP280;62942;52.462;10.846;2022-10-16T05:00:19;100500;;;
74485;BMP280;62942;52.462;10.846;2022-10-16T05:01:28;100500;;;
74485;BMP280;62942;52.462;10.846;2022-10-16T05:02:38;100490;;;
74485;BMP280;62942;52.462;10.846;2022-10-16T05:03:48;100480;;;
74485;BMP280;62942;52.462;10.846;2022-10-16T05:04:58;100490;;;
74485;BMP280;62942;52.462;10.846;2022-10-16T05:06:09;100490;;;
74485;BMP280;62942;52.462;10.846;2022-10-16T05:07:08;100480;;;
74485;BMP280;62942;52.462;10.846;2022-10-16T05:08:18;100480;;;
74485;BMP280;62942;52.462;10.846;2022-10-16T05:09:28;100470;;;
74485;BMP280;62942;52.462;10.846;2022-10-16T05:10:38;100470;;;
74485;BMP280;62942;52.462;10.846;2022-10-16T05:11:48;100490;;;
74485;BMP280;62942;52.462;10.846;2022-10-16T05:12:48;100480;;;
74485;BMP280;62942;52.462;10.846;2022-10-16T05:13:59;100480;;;
74485;BMP280;62942;52.462;10.846;2022-10-16T05:14:58;100480;;;
74485;BMP280;62942;52.462;10.846;2022-10-16T05:15:58;100480;;;
74485;BMP280;62942;52.462;10.846;2022-10-16T05:17:08;100480;;;
74485;BMP280;62942;52.462;10.846;2022-10-16T05:18:18;100470;;;
74485;BMP280;62942;52.462;10.846;2022-10-16T05:19:18;100470;;;
74485;BMP280;62942;52.462;10.846;2022-10-16T05:20:19;100480;;;
74485;BMP280;62942;52.462;10.846;2022-10-16T05:21:28;100480;;;
74485;BMP280;62942;52.462;10.846;2022-10-16T05:22:28;100490;;;
74485;BMP280;62942;52.462;10.846;2022-10-16T05:23:38;100480;;;
74485;BMP280;62942;52.462;10.846;2022-10-16T05:24:48;100490;;;
74485;BMP280;62942;52.462;10.846;2022-10-16T05:25:52;100490;;;
74485;BMP280;62942;52.462;10.846;2022-10-16T05:26:58;100490;;;
74485;BMP280;62942;52.462;10.846;2022-10-16T05:28:08;100510;;;
74485;BMP280;62942;52.462;10.846;2022-10-16T05:29:18;100510;;;
74485;BMP280;62942;52.462;10.846;2022-10-16T05:30:19;100510;;;
74485;BMP280;62942;52.462;10.846;2022-10-16T05:31:28;100500;;;
74485;BMP280;62942;52.462;10.846;2022-10-16T05:32:28;100500;;;
74485;BMP280;62942;52.462;10.846;2022-10-16T05:33:38;100520;;;
74485;BMP280;62942;52.462;10.846;2022-10-16T05:34:38;100520;;;
74485;BMP280;62942;52.462;10.846;2022-10-16T05:35:48;100520;;;
74485;BMP280;62942;52.462;10.846;2022-10-16T05:36:48;100520;;;
74485;BMP280;62942;52.462;10.846;2022-10-16T05:37:58;100520;;;
74485;BMP280;62942;52.462;10.846;2022-10-16T05:39:08;100530;;;
74485;BMP280;62942;52.462;10.846;2022-10-16T05:40:09;100530;;;
74485;BMP280;62942;52.462;10.846;2022-10-16T05:41:18;100520;;;
74485;BMP280;62942;52.462;10.846;2022-10-16T05:42:28;100520;;;
74485;BMP280;62942;52.462;10.846;2022-10-16T05:43:28;100500;;;
74485;BMP280;62942;52.462;10.846;2022-10-16T05:44:38;100500;;;
74485;BMP280;62942;52.462;10.846;2022-10-16T05:45:38;100510;;;
74485;BMP280;62942;52.462;10.846;2022-10-16T05:46:48;100520;;;
74485;BMP280;62942;52.462;10.846;2022-10-16T05:47:48;100530;;;
74485;BMP280;62942;52.462;10.846;2022-10-16T05:48:58;100530;;;
74485;BMP280;62942;52.462;10.846;2022-10-16T05:50:08;100520;;;
74485;BMP280;62942;52.462;10.846;2022-10-16T05:51:10;100520;;;
74485;BMP280;62942;52.462;10.846;2022-10-16T05:52:18;100520;;;
74485;BMP280;62942;52.462;10.846;2022-10-16T05:53:29;100530;;;
74485;BMP280;62942;52.462;10.846;2022-10-16T05:54:38;100530;;;
74485;BMP280;62942;52.462;10.846;2022-10-16T05:55:38;100530;;;
74485;BMP280;62942;52.462;10.846;2022-10-16T05:56:48;100520;;;
74485;BMP280;62942;52.462;10.846;2022-10-16T05:57:58;100530;;;
74485;BMP280;62942;52.462;10.846;2022-10-16T05:59:08;100520;;;
74485;BMP280;62942;52.462;10.846;2022-10-16T06:00:09;100520;;;
74485;BMP280;62942;52.462;10.846;2022-10-16T06:01:09;100530;;;
74485;BMP280;62942;52.462;10.846;2022-10-16T06:02:10;100530;;;
74485;BMP280;62942;52.462;10.846;2022-10-16T06:03:18;100540;;;
74485;BMP280;62942;52.462;10.846;2022-10-16T06:04:18;100540;;;
74485;BMP280;62942;52.462;10.846;2022-10-16T06:05:28;100550;;;
74485;BMP280;62942;52.462;10.846;2022-10-16T06:06:38;100540;;;
74485;BMP280;62942;52.462;10.846;2022-10-16T06:07:48;100550;;;
74485;BMP280;62942;52.462;10.846;2022-10-16T06:08:49;100550;;;
74485;BMP280;62942;52.462;10.846;2022-10-16T06:09:58;100550;;;
74485;BMP280;62942;52.462;10.846;2022-10-16T06:11:10;100550;;;
74485;BMP280;62942;52.462;10.846;2022-10-16T06:12:19;100550;;;
74485;BMP280;62942;52.462;10.846;2022-10-16T06:13:18;100550;;;
74485;BMP280;62942;52.462;10.846;2022-10-16T06:14:28;100560;;;
74485;BMP280;62942;52.462;10.846;2022-10-16T06:15:39;100560;;;
74485;BMP280;62942;52.462;10.846;2022-10-16T06:16:48;100560;;;
74485;BMP280;62942;52.462;10.846;2022-10-16T06:17:48;100560;;;
74485;BMP280;62942;52.462;10.846;2022-10-16T06:18:58;100560;;;
74485;BMP280;62942;52.462;10.846;2022-10-16T06:20:08;100570;;;
74485;BMP280;62942;52.462;10.846;2022-10-16T06:21:19;100570;;;
74485;BMP280;62942;52.462;10.846;2022-10-16T06:22:28;100570;;;
74485;BMP280;62942;52.462;10.846;2022-10-16T06:23:28;100570;;;
74485;BMP280;62942;52.462;10.846;2022-10-16T06:24:38;100560;;;
74485;BMP280;62942;52.462;10.846;2022-10-16T06:25:48;100560;;;
74485;BMP280;62942;52.462;10.846;2022-10-16T06:26:58;100570;;;
74485;BMP280;62942;52.462;10.846;2022-10-16T06:27:59;100570;;;
74485;BMP280;62942;52.462;10.846;2022-10-16T06:29:08;100570;;;
74485;BMP280;62942;52.462;10.846;2022-10-16T06:30:18;100580;;;
74485;BMP280;62942;52.462;10.846;2022-10-16T06:31:19;100580;;;
74485;BMP280;62942;52.462;10.846;2022-10-16T06:32:28;100570;;;
74485;BMP280;62942;52.462;10.846;2022-10-16T06:33:28;100560;;;
74485;BMP280;62942;52.462;10.846;2022-10-16T06:34:38;100560;;;
74485;BMP280;62942;52.462;10.846;2022-10-16T06:35:38;100570;;;
74485;BMP280;62942;52.462;10.846;2022-10-16T06:36:48;100560;;;
74485;BMP280;62942;52.462;10.846;2022-10-16T06:37:48;100560;;;
74485;BMP280;62942;52.462;10.846;2022-10-16T06:38:58;100570;;;
74485;BMP280;62942;52.462;10.846;2022-10-16T06:39:58;100570;;;
74485;BMP280;62942;52.462;10.846;2022-10-16T06:41:09;100560;;;
74485;BMP280;62942;52.462;10.846;2022-10-16T06:42:08;100560;;;
74485;BMP280;62942;52.462;10.846;2022-10-16T06:43:18;100560;;;
74485;BMP280;62942;52.462;10.846;2022-10-16T06:44:18;100570;;;
74485;BMP280;62942;52.462;10.846;2022-10-16T06:45:28;100570;;;
74485;BMP280;62942;52.462;10.846;2022-10-16T06:46:28;100570;;;
74485;BMP280;62942;52.462;10.846;2022-10-16T06:47:38;100570;;;
74485;BMP280;62942;52.462;10.846;2022-10-16T06:48:48;100580;;;
74485;BMP280;62942;52.462;10.846;2022-10-16T06:49:58;100580;;;
74485;BMP280;62942;52.462;10.846;2022-10-16T06:51:09;100590;;;
74485;BMP280;62942;52.462;10.846;2022-10-16T06:52:08;100600;;;
74485;BMP280;62942;52.462;10.846;2022-10-16T06:53:08;100610;;;
74485;BMP280;62942;52.462;10.846;2022-10-16T06:54:18;100610;;;
74485;BMP280;62942;52.462;10.846;2022-10-16T06:55:18;100610;;;
74485;BMP280;62942;52.462;10.846;2022-10-16T06:56:29;100610;;;
74485;BMP280;62942;52.462;10.846;2022-10-16T06:57:38;100610;;;
74485;BMP280;62942;52.462;10.846;2022-10-16T06:58:48;100610;;;
74485;BMP280;62942;52.462;10.846;2022-10-16T06:59:58;100610;;;
74485;BMP280;62942;52.462;10.846;2022-10-16T07:01:09;100620;;;
74485;BMP280;62942;52.462;10.846;2022-10-16T07:02:08;100600;;;